Time;durP1;ratioP1;P1;durP2;ratioP2;P2;SDS_P1;SDS_P2;PMS_P1;PMS_P2;Temp;Humidity;BMP_temperature;BMP_pressure;BME280_temperature;BME280_humidity;BME280_pressure;Samples;Min_cycle;Max_cycle;Signal;HPM_P1;HPM_P2
2023/09/15 00:00:47;;;;;;;10.88;4.82;;;15.40;99.90;;;;;;5028489;28;20033;-70
2023/09/15 00:03:12;;;;;;;8.48;5.05;;;15.30;99.90;;;;;;5014318;28;20045;-70
2023/09/15 00:05:38;;;;;;;8.32;4.93;;;15.40;99.90;;;;;;5022621;28;20054;-70
2023/09/15 00:08:05;;;;;;;9.07;5.43;;;15.30;99.90;;;;;;5012959;28;20034;-71
2023/09/15 00:10:33;;;;;;;10.45;5.20;;;15.40;99.90;;;;;;5016199;28;20037;-70
2023/09/15 00:12:59;;;;;;;12.70;5.38;;;15.30;99.90;;;;;;5021301;28;20043;-71
2023/09/15 00:15:25;;;;;;;11.98;5.05;;;15.30;99.90;;;;;;5020689;28;20400;-71
2023/09/15 00:17:51;;;;;;;10.80;5.35;;;15.30;99.90;;;;;;5029822;28;20033;-70
2023/09/15 00:20:17;;;;;;;9.50;4.63;;;15.20;99.90;;;;;;5020629;28;20063;-70
2023/09/15 00:22:49;;;;;;;10.40;5.28;;;15.20;99.90;;;;;;5025812;28;20067;-71
2023/09/15 00:25:25;;;;;;;11.30;4.97;;;15.20;99.90;;;;;;5019235;28;20030;-69
2023/09/15 00:27:54;;;;;;;10.93;4.88;;;15.20;99.90;;;;;;5020751;28;20030;-71
2023/09/15 00:30:21;;;;;;;9.57;5.25;;;15.10;99.90;;;;;;5021476;28;20048;-71
2023/09/15 00:32:48;;;;;;;11.15;5.88;;;15.10;99.90;;;;;;5023343;28;20033;-71
2023/09/15 00:35:18;;;;;;;15.15;5.38;;;15.10;99.90;;;;;;5013434;28;20040;-71
2023/09/15 00:37:48;;;;;;;11.90;5.57;;;15.10;99.90;;;;;;5026164;28;20045;-71
2023/09/15 00:40:15;;;;;;;9.95;5.85;;;15.10;99.90;;;;;;5022945;28;20106;-70
2023/09/15 00:42:43;;;;;;;9.02;5.25;;;15.10;99.90;;;;;;5023894;28;20078;-71
2023/09/15 00:45:15;;;;;;;9.57;5.30;;;15.00;99.90;;;;;;5015981;28;20033;-69
2023/09/15 00:47:49;;;;;;;13.48;5.38;;;15.00;99.90;;;;;;5024856;28;20033;-72
2023/09/15 00:50:16;;;;;;;11.32;6.45;;;14.90;99.90;;;;;;5016997;28;20037;-71
2023/09/15 00:52:49;;;;;;;11.00;5.45;;;15.00;99.90;;;;;;5012552;28;20044;-71
2023/09/15 00:55:15;;;;;;;12.95;5.40;;;14.90;99.90;;;;;;5018195;28;20030;-71
2023/09/15 00:57:41;;;;;;;10.75;5.72;;;15.00;99.90;;;;;;5018667;28;20041;-70
2023/09/15 01:00:13;;;;;;;12.10;5.95;;;14.90;99.90;;;;;;5020141;28;20481;-71
2023/09/15 01:02:39;;;;;;;9.60;5.57;;;14.90;99.90;;;;;;5025687;28;20053;-70
2023/09/15 01:05:06;;;;;;;14.60;5.95;;;14.90;99.90;;;;;;5023453;28;20053;-71
2023/09/15 01:07:33;;;;;;;11.63;5.93;;;14.90;99.90;;;;;;5022181;28;20050;-70
2023/09/15 01:09:58;;;;;;;10.93;5.47;;;14.80;99.90;;;;;;5024821;28;20587;-71
2023/09/15 01:12:24;;;;;;;9.88;5.85;;;14.80;99.90;;;;;;5023753;28;20157;-71
2023/09/15 01:14:49;;;;;;;10.88;5.25;;;14.80;99.90;;;;;;5026908;28;20041;-71
2023/09/15 01:17:23;;;;;;;13.35;5.82;;;14.80;99.90;;;;;;5023475;28;20392;-69
2023/09/15 01:20:08;;;;;;;11.57;5.60;;;14.80;99.90;;;;;;5019364;28;20099;-71
2023/09/15 01:22:58;;;;;;;11.73;6.15;;;14.80;99.90;;;;;;5028623;28;20145;-70
2023/09/15 01:25:52;;;;;;;10.13;5.40;;;14.70;99.90;;;;;;5017160;28;20049;-72
2023/09/15 01:28:20;;;;;;;11.48;5.55;;;14.70;99.90;;;;;;5040803;28;20033;-71
2023/09/15 01:30:49;;;;;;;11.88;5.78;;;14.70;99.90;;;;;;5020580;28;20040;-71
2023/09/15 01:33:16;;;;;;;14.27;5.65;;;14.70;99.90;;;;;;5040429;28;20041;-70
2023/09/15 01:35:42;;;;;;;10.75;6.28;;;14.70;99.90;;;;;;5037319;28;20199;-70
2023/09/15 01:38:07;;;;;;;11.32;5.63;;;14.70;99.90;;;;;;5044261;28;20124;-72
2023/09/15 01:40:33;;;;;;;13.95;5.95;;;14.70;99.90;;;;;;5034834;28;20405;-71
2023/09/15 01:42:59;;;;;;;11.70;6.10;;;14.70;99.90;;;;;;5016891;28;20472;-71
2023/09/15 01:45:24;;;;;;;13.98;6.35;;;14.70;99.90;;;;;;5016465;28;20037;-71
2023/09/15 01:47:51;;;;;;;10.82;5.72;;;14.60;99.90;;;;;;5033960;28;20568;-70
2023/09/15 01:50:17;;;;;;;13.98;6.07;;;14.60;99.90;;;;;;5042542;28;20057;-72
2023/09/15 01:52:43;;;;;;;12.32;6.55;;;14.60;99.90;;;;;;5042258;28;20044;-70
2023/09/15 01:55:10;;;;;;;12.05;6.53;;;14.50;99.90;;;;;;5032627;28;20077;-70
2023/09/15 01:57:35;;;;;;;15.23;6.40;;;14.50;99.90;;;;;;5015022;28;20040;-70
2023/09/15 02:00:01;;;;;;;10.57;6.00;;;14.50;99.90;;;;;;5022769;28;20128;-71
2023/09/15 02:02:26;;;;;;;15.10;6.47;;;14.50;99.90;;;;;;5039440;28;20036;-71
2023/09/15 02:04:53;;;;;;;12.40;6.35;;;14.50;99.90;;;;;;5040592;28;20112;-70
2023/09/15 02:07:19;;;;;;;12.20;6.80;;;14.50;99.90;;;;;;5023354;28;20040;-70
2023/09/15 02:09:44;;;;;;;10.85;6.18;;;14.50;99.90;;;;;;5045129;28;20040;-70
2023/09/15 02:12:10;;;;;;;15.50;6.68;;;14.40;99.90;;;;;;5039869;28;20525;-70
2023/09/15 02:14:37;;;;;;;14.38;6.45;;;14.40;99.90;;;;;;5047141;28;20131;-70
2023/09/15 02:17:04;;;;;;;13.13;6.45;;;14.40;99.90;;;;;;5031821;28;20120;-75
2023/09/15 02:19:30;;;;;;;12.98;6.18;;;14.40;99.90;;;;;;5038441;28;20048;-71
2023/09/15 02:21:57;;;;;;;13.38;5.95;;;14.40;99.90;;;;;;5036575;28;20033;-70
2023/09/15 02:24:22;;;;;;;13.43;6.97;;;14.40;99.90;;;;;;5035477;28;20041;-70
2023/09/15 02:26:48;;;;;;;17.00;6.95;;;14.40;99.90;;;;;;5048779;28;20107;-70
2023/09/15 02:29:14;;;;;;;12.00;6.53;;;14.40;99.90;;;;;;5022366;28;20421;-70
2023/09/15 02:31:40;;;;;;;13.55;6.43;;;14.30;99.90;;;;;;5036143;28;20029;-70
2023/09/15 02:34:06;;;;;;;16.60;6.85;;;14.30;99.90;;;;;;5037293;28;20034;-70
2023/09/15 02:36:32;;;;;;;13.80;6.65;;;14.30;99.90;;;;;;5040223;28;20095;-70
2023/09/15 02:38:57;;;;;;;10.35;6.05;;;14.30;99.90;;;;;;5019923;28;20112;-71
2023/09/15 02:41:23;;;;;;;13.05;7.05;;;14.20;99.90;;;;;;5016557;28;20069;-71
2023/09/15 02:43:48;;;;;;;13.15;6.28;;;14.30;99.90;;;;;;5021489;28;20040;-70
2023/09/15 02:46:14;;;;;;;15.13;7.82;;;14.30;99.90;;;;;;5034470;28;20037;-70
2023/09/15 02:48:42;;;;;;;10.70;5.70;;;14.30;99.90;;;;;;5034224;28;20067;-70
2023/09/15 02:51:08;;;;;;;12.50;6.70;;;14.20;99.90;;;;;;5020986;28;20422;-70
2023/09/15 02:53:33;;;;;;;12.02;6.85;;;14.30;99.90;;;;;;5025899;28;20055;-71
2023/09/15 02:56:05;;;;;;;13.07;6.00;;;14.30;99.90;;;;;;5038940;28;20055;-70
2023/09/15 02:58:32;;;;;;;12.80;6.28;;;14.30;99.90;;;;;;5022532;28;20037;-70
2023/09/15 03:00:58;;;;;;;11.85;5.82;;;14.20;99.90;;;;;;5038682;28;20399;-70
2023/09/15 03:03:23;;;;;;;16.98;6.55;;;14.20;99.90;;;;;;5016540;28;20029;-70
2023/09/15 03:05:49;;;;;;;13.35;6.88;;;14.20;99.90;;;;;;5027608;28;20041;-70
2023/09/15 03:08:15;;;;;;;12.45;6.05;;;14.10;99.90;;;;;;5037431;28;20037;-69
2023/09/15 03:10:41;;;;;;;11.93;6.18;;;14.10;99.90;;;;;;5046853;28;20048;-71
2023/09/15 03:13:06;;;;;;;12.50;5.97;;;14.10;99.90;;;;;;5027370;28;20049;-70
2023/09/15 03:15:35;;;;;;;13.82;5.53;;;14.10;99.90;;;;;;5021190;28;20656;-70
2023/09/15 03:18:01;;;;;;;11.00;5.63;;;14.10;99.90;;;;;;5021431;28;20210;-70
2023/09/15 03:20:27;;;;;;;18.60;6.55;;;14.10;99.90;;;;;;5045669;28;20539;-70
2023/09/15 03:22:53;;;;;;;13.23;6.22;;;14.10;99.90;;;;;;5020865;28;20030;-70
2023/09/15 03:25:18;;;;;;;10.05;6.10;;;14.10;99.90;;;;;;5037366;28;20049;-70
2023/09/15 03:27:44;;;;;;;12.45;6.63;;;14.10;99.90;;;;;;5046318;28;20041;-70
2023/09/15 03:30:10;;;;;;;13.02;6.30;;;14.10;99.90;;;;;;5026341;28;20044;-69
2023/09/15 03:32:37;;;;;;;11.10;5.65;;;14.00;99.90;;;;;;5010253;28;20111;-70
2023/09/15 03:35:07;;;;;;;10.68;5.93;;;14.00;99.90;;;;;;5015301;28;20497;-74
2023/09/15 03:37:33;;;;;;;14.33;5.77;;;14.00;99.90;;;;;;5032812;28;20033;-70
2023/09/15 03:39:59;;;;;;;13.77;6.28;;;14.00;99.90;;;;;;5035693;28;20284;-72
2023/09/15 03:42:25;;;;;;;16.92;6.57;;;14.00;99.90;;;;;;5009495;28;20041;-69
2023/09/15 03:44:50;;;;;;;12.07;6.10;;;14.00;99.90;;;;;;5016751;28;20092;-71
2023/09/15 03:47:16;;;;;;;13.25;5.82;;;13.90;99.90;;;;;;5027121;28;20591;-70
2023/09/15 03:49:41;;;;;;;10.65;5.70;;;14.00;99.90;;;;;;5029200;28;20140;-70
2023/09/15 03:52:07;;;;;;;9.98;5.47;;;14.00;99.90;;;;;;5013564;28;20026;-70
2023/09/15 03:54:33;;;;;;;11.82;5.85;;;13.90;99.90;;;;;;5020769;28;20067;-70
2023/09/15 03:56:59;;;;;;;12.10;5.03;;;13.90;99.90;;;;;;5045907;28;20477;-70
2023/09/15 03:59:24;;;;;;;13.30;5.22;;;14.00;99.90;;;;;;5035596;28;20123;-70
2023/09/15 04:01:50;;;;;;;13.88;6.28;;;14.00;99.90;;;;;;5042307;28;20033;-70
2023/09/15 04:04:16;;;;;;;13.75;6.00;;;13.90;99.90;;;;;;5044578;28;20033;-71
2023/09/15 04:06:41;;;;;;;10.10;5.43;;;13.90;99.90;;;;;;5030735;28;20048;-70
2023/09/15 04:09:13;;;;;;;15.60;5.55;;;13.90;99.90;;;;;;5039300;28;20099;-70
2023/09/15 04:11:43;;;;;;;18.85;5.15;;;13.80;99.90;;;;;;5020022;28;20041;-72
2023/09/15 04:14:08;;;;;;;10.40;5.75;;;13.80;99.90;;;;;;5018203;28;20030;-73
2023/09/15 04:16:37;;;;;;;12.57;5.32;;;13.80;99.90;;;;;;5050012;28;20045;-71
2023/09/15 04:19:03;;;;;;;14.73;5.50;;;13.80;99.90;;;;;;5021075;28;20774;-74
2023/09/15 04:21:29;;;;;;;10.35;5.90;;;13.80;99.90;;;;;;5025138;28;20043;-70
2023/09/15 04:23:54;;;;;;;10.05;5.93;;;13.70;99.90;;;;;;5033078;28;20034;-71
2023/09/15 04:26:20;;;;;;;17.25;5.85;;;13.80;99.90;;;;;;5016699;28;20086;-69
2023/09/15 04:28:46;;;;;;;13.52;5.32;;;13.80;99.90;;;;;;5043769;28;20037;-72
2023/09/15 04:31:12;;;;;;;12.70;4.97;;;13.80;99.90;;;;;;5022784;28;20119;-71
2023/09/15 04:33:37;;;;;;;15.65;5.60;;;13.70;99.90;;;;;;5031468;28;20088;-71
2023/09/15 04:36:03;;;;;;;13.80;6.20;;;13.70;99.90;;;;;;5012361;28;20021;-70
2023/09/15 04:38:30;;;;;;;10.13;5.20;;;13.70;99.90;;;;;;5011734;28;20486;-70
2023/09/15 04:40:55;;;;;;;12.20;4.45;;;13.70;99.90;;;;;;5020223;28;20497;-70
2023/09/15 04:43:21;;;;;;;16.95;5.38;;;13.70;99.90;;;;;;5014566;28;20023;-70
2023/09/15 04:45:47;;;;;;;16.25;5.40;;;13.70;99.90;;;;;;5016474;28;20044;-70
2023/09/15 04:48:13;;;;;;;10.40;4.80;;;13.70;99.90;;;;;;5019779;28;20444;-70
2023/09/15 04:50:38;;;;;;;9.88;4.72;;;13.60;99.90;;;;;;5029532;28;20033;-70
2023/09/15 04:53:06;;;;;;;14.77;4.90;;;13.70;99.90;;;;;;5018544;28;20443;-73
2023/09/15 04:55:35;;;;;;;8.00;4.10;;;13.60;99.90;;;;;;5021816;28;20037;-70
2023/09/15 04:58:01;;;;;;;11.45;4.35;;;13.60;99.90;;;;;;5018567;28;20038;-70
2023/09/15 05:00:27;;;;;;;9.93;4.72;;;13.60;99.90;;;;;;5014162;28;20033;-71
2023/09/15 05:02:53;;;;;;;11.20;4.63;;;13.50;99.90;;;;;;5024696;28;20036;-70
2023/09/15 05:05:19;;;;;;;8.10;3.90;;;13.50;99.90;;;;;;5013522;28;20030;-70
2023/09/15 05:07:45;;;;;;;8.10;4.30;;;13.50;99.90;;;;;;5014657;28;20385;-71
2023/09/15 05:10:11;;;;;;;13.65;5.10;;;13.50;99.90;;;;;;5022856;28;20597;-72
2023/09/15 05:12:36;;;;;;;10.90;4.93;;;13.50;99.90;;;;;;5024259;28;20045;-70
2023/09/15 05:15:03;;;;;;;14.80;5.30;;;13.50;99.90;;;;;;5017779;28;20029;-71
2023/09/15 05:17:28;;;;;;;13.07;4.72;;;13.50;99.90;;;;;;5020105;28;20034;-70
2023/09/15 05:19:56;;;;;;;9.07;4.72;;;13.50;99.90;;;;;;5021472;28;20083;-69
2023/09/15 05:22:22;;;;;;;10.35;4.72;;;13.50;99.90;;;;;;5018333;28;20029;-70
2023/09/15 05:24:47;;;;;;;7.82;3.58;;;13.50;99.90;;;;;;5012659;28;20117;-71
2023/09/15 05:27:13;;;;;;;13.23;4.72;;;13.50;99.90;;;;;;5018896;28;20112;-71
2023/09/15 05:29:38;;;;;;;14.88;4.90;;;13.50;99.90;;;;;;5018848;28;20055;-70
2023/09/15 05:32:04;;;;;;;10.20;4.55;;;13.50;99.90;;;;;;5022280;28;20037;-74
2023/09/15 05:34:30;;;;;;;10.75;4.70;;;13.50;99.90;;;;;;5016949;28;20048;-70
2023/09/15 05:36:55;;;;;;;14.63;4.38;;;13.50;99.90;;;;;;5022983;28;20101;-71
2023/09/15 05:39:21;;;;;;;9.73;4.47;;;13.50;99.90;;;;;;5018079;28;20061;-70
2023/09/15 05:41:46;;;;;;;7.70;3.83;;;13.50;99.90;;;;;;5014906;28;20050;-70
2023/09/15 05:44:12;;;;;;;11.35;4.88;;;13.50;99.90;;;;;;5017112;28;20040;-70
2023/09/15 05:46:38;;;;;;;9.65;4.85;;;13.50;99.90;;;;;;5030524;28;20029;-70
2023/09/15 05:49:03;;;;;;;11.55;4.30;;;13.50;99.90;;;;;;5036077;28;20044;-70
2023/09/15 05:51:29;;;;;;;7.15;3.85;;;13.50;99.90;;;;;;5024093;28;20057;-71
2023/09/15 05:53:54;;;;;;;9.65;4.43;;;13.60;99.90;;;;;;5032209;28;20371;-70
2023/09/15 05:56:20;;;;;;;10.50;4.80;;;13.60;99.90;;;;;;5015650;28;20388;-71
2023/09/15 05:58:45;;;;;;;9.32;3.78;;;13.60;99.90;;;;;;5015199;28;20149;-70
2023/09/15 06:01:11;;;;;;;9.90;4.97;;;13.60;99.90;;;;;;5014765;28;20117;-69
2023/09/15 06:03:37;;;;;;;11.20;4.90;;;13.60;99.90;;;;;;5023956;28;20037;-70
2023/09/15 06:06:03;;;;;;;8.65;4.88;;;13.60;99.90;;;;;;5017541;28;20507;-69
2023/09/15 06:08:28;;;;;;;9.10;3.67;;;13.70;99.90;;;;;;5012284;28;20041;-70
2023/09/15 06:10:54;;;;;;;12.23;4.03;;;13.70;99.90;;;;;;5016208;28;20109;-70
2023/09/15 06:13:19;;;;;;;15.32;5.30;;;13.70;99.90;;;;;;5014235;28;20038;-71
2023/09/15 06:15:45;;;;;;;8.23;4.03;;;13.70;99.90;;;;;;5016322;28;20045;-70
2023/09/15 06:18:11;;;;;;;13.25;3.85;;;13.80;99.90;;;;;;5015057;28;20037;-70
2023/09/15 06:20:36;;;;;;;8.70;4.00;;;13.80;99.90;;;;;;5019381;28;20037;-70
2023/09/15 06:23:02;;;;;;;10.75;4.20;;;13.90;99.90;;;;;;5017479;28;20079;-70
2023/09/15 06:25:30;;;;;;;10.52;3.97;;;13.90;99.90;;;;;;5015810;28;20029;-68
2023/09/15 06:27:57;;;;;;;10.40;4.65;;;13.90;99.90;;;;;;5015868;28;20099;-70
2023/09/15 06:30:22;;;;;;;8.40;3.83;;;13.90;99.90;;;;;;5018763;28;20059;-70
2023/09/15 06:32:48;;;;;;;8.63;4.00;;;14.00;99.90;;;;;;5022928;28;20489;-69
2023/09/15 06:35:13;;;;;;;18.55;4.65;;;14.10;99.90;;;;;;5025967;28;20029;-70
2023/09/15 06:37:40;;;;;;;7.03;3.40;;;14.20;99.90;;;;;;5026379;28;20044;-70
2023/09/15 06:40:07;;;;;;;9.57;3.53;;;14.30;99.90;;;;;;5026278;28;20033;-70
2023/09/15 06:42:33;;;;;;;7.53;3.10;;;14.40;99.90;;;;;;5017997;28;20120;-69
2023/09/15 06:44:58;;;;;;;11.95;4.25;;;14.40;99.90;;;;;;5021013;28;20056;-69
2023/09/15 06:47:24;;;;;;;10.13;4.15;;;14.40;99.90;;;;;;5018955;28;20501;-71
2023/09/15 06:49:49;;;;;;;7.57;3.17;;;14.50;99.90;;;;;;5014323;28;20497;-69
2023/09/15 06:52:15;;;;;;;11.55;3.63;;;14.60;99.90;;;;;;5012026;28;20412;-70
2023/09/15 06:54:40;;;;;;;8.77;3.53;;;14.60;99.90;;;;;;5020070;28;20033;-70
2023/09/15 06:57:06;;;;;;;7.07;3.40;;;14.70;99.90;;;;;;5009024;28;20105;-71
2023/09/15 06:59:31;;;;;;;7.68;3.50;;;14.70;99.90;;;;;;5020477;28;20037;-70
2023/09/15 07:01:59;;;;;;;8.98;3.80;;;14.80;99.90;;;;;;5026893;28;20505;-69
2023/09/15 07:04:27;;;;;;;13.45;3.72;;;14.90;99.90;;;;;;5019066;28;20034;-69
2023/09/15 07:06:54;;;;;;;9.27;3.35;;;14.90;99.90;;;;;;5025526;28;20045;-69
2023/09/15 07:09:19;;;;;;;11.10;2.97;;;14.90;99.90;;;;;;5018116;28;20693;-71
2023/09/15 07:11:45;;;;;;;5.63;2.90;;;15.00;99.90;;;;;;5009515;28;20026;-71
2023/09/15 07:14:10;;;;;;;6.10;3.13;;;15.00;99.90;;;;;;5021510;28;20461;-71
2023/09/15 07:16:36;;;;;;;9.93;3.67;;;15.10;99.90;;;;;;5023601;28;20041;-71
2023/09/15 07:19:02;;;;;;;10.07;3.33;;;15.20;99.90;;;;;;5027197;28;20026;-70
2023/09/15 07:21:27;;;;;;;7.97;2.60;;;15.20;99.90;;;;;;5012967;28;20486;-69
2023/09/15 07:23:54;;;;;;;8.43;2.83;;;15.20;99.90;;;;;;5020601;28;20063;-69
2023/09/15 07:26:20;;;;;;;6.82;3.28;;;15.20;99.90;;;;;;5015236;28;20022;-72
2023/09/15 07:28:46;;;;;;;11.13;3.72;;;15.30;99.90;;;;;;5022378;28;20371;-69
2023/09/15 07:31:15;;;;;;;5.95;2.75;;;15.40;99.90;;;;;;5020207;28;20551;-70
2023/09/15 07:33:41;;;;;;;5.25;2.90;;;15.40;99.90;;;;;;5020362;28;20030;-71
2023/09/15 07:36:06;;;;;;;7.55;3.35;;;15.50;99.90;;;;;;5027460;28;20040;-71
2023/09/15 07:38:32;;;;;;;6.38;2.38;;;15.60;99.90;;;;;;5026484;28;20806;-72
2023/09/15 07:40:58;;;;;;;8.82;3.10;;;15.60;99.90;;;;;;5020850;28;20088;-70
2023/09/15 07:43:24;;;;;;;9.52;2.70;;;15.80;99.90;;;;;;5015576;28;20042;-70
2023/09/15 07:45:52;;;;;;;8.85;2.90;;;15.90;99.90;;;;;;5028233;28;20045;-70
2023/09/15 07:48:18;;;;;;;6.03;2.63;;;16.00;99.90;;;;;;5022082;28;20033;-71
2023/09/15 07:50:43;;;;;;;8.30;3.45;;;16.10;99.90;;;;;;5022702;28;20045;-69
2023/09/15 07:53:10;;;;;;;9.20;2.92;;;16.10;99.90;;;;;;5021952;28;20493;-71
2023/09/15 07:55:35;;;;;;;7.45;2.90;;;16.20;99.90;;;;;;5020767;28;20052;-71
2023/09/15 07:58:01;;;;;;;5.80;2.45;;;16.30;99.90;;;;;;5019920;28;20042;-71
2023/09/15 08:00:27;;;;;;;5.30;2.60;;;16.40;99.90;;;;;;5019148;28;20132;-70
2023/09/15 08:02:53;;;;;;;5.20;2.50;;;16.50;99.90;;;;;;5020426;28;20038;-71
2023/09/15 08:05:19;;;;;;;5.22;2.67;;;16.50;99.90;;;;;;5021411;28;20049;-70
2023/09/15 08:07:46;;;;;;;9.02;2.80;;;16.50;99.90;;;;;;5018974;28;20034;-72
2023/09/15 08:10:13;;;;;;;6.97;2.67;;;16.70;99.90;;;;;;5020508;28;20049;-70
2023/09/15 08:12:38;;;;;;;10.80;2.78;;;16.80;99.90;;;;;;5028068;28;20179;-71
2023/09/15 08:15:05;;;;;;;12.35;2.50;;;16.90;99.90;;;;;;5028585;28;20485;-71
2023/09/15 08:17:31;;;;;;;5.85;2.20;;;17.00;99.90;;;;;;5018774;28;20624;-70
2023/09/15 08:19:57;;;;;;;7.60;2.40;;;17.10;99.90;;;;;;5019521;28;20056;-71
2023/09/15 08:22:23;;;;;;;7.32;2.10;;;17.20;99.90;;;;;;5015055;28;20037;-70
2023/09/15 08:24:49;;;;;;;6.65;2.42;;;17.30;99.90;;;;;;5016824;28;20037;-69
2023/09/15 08:27:15;;;;;;;5.70;2.25;;;17.40;99.90;;;;;;5024651;28;20041;-69
2023/09/15 08:29:41;;;;;;;4.93;2.25;;;17.50;99.90;;;;;;5023974;28;20037;-69
2023/09/15 08:32:09;;;;;;;5.28;2.63;;;17.50;99.90;;;;;;5024027;28;20033;-72
2023/09/15 08:34:34;;;;;;;5.72;2.40;;;17.60;99.90;;;;;;5018054;28;20088;-70
2023/09/15 08:37:00;;;;;;;3.63;2.03;;;17.70;99.90;;;;;;5024164;28;20037;-70
2023/09/15 08:39:26;;;;;;;4.97;1.95;;;17.80;99.90;;;;;;5016009;28;20034;-70
2023/09/15 08:41:57;;;;;;;7.47;2.50;;;17.90;99.90;;;;;;5007642;28;20129;-70
2023/09/15 08:44:25;;;;;;;4.18;2.13;;;18.00;99.90;;;;;;5010411;28;20038;-71
2023/09/15 08:46:51;;;;;;;5.90;2.10;;;18.10;99.90;;;;;;5017995;28;20040;-70
2023/09/15 08:49:17;;;;;;;5.72;1.98;;;18.20;99.90;;;;;;5024172;28;20042;-70
2023/09/15 08:51:44;;;;;;;3.70;1.77;;;18.30;99.90;;;;;;5019958;28;20065;-70
2023/09/15 08:54:10;;;;;;;4.53;2.05;;;18.30;99.90;;;;;;5021217;28;20022;-70
2023/09/15 08:56:38;;;;;;;7.43;1.90;;;18.50;99.90;;;;;;5018799;28;20030;-70
2023/09/15 08:59:06;;;;;;;6.68;2.60;;;18.60;99.90;;;;;;5022564;28;20065;-70
2023/09/15 09:01:32;;;;;;;4.68;1.95;;;18.70;99.90;;;;;;5011236;28;20035;-70
2023/09/15 09:03:58;;;;;;;6.28;2.60;;;18.70;99.90;;;;;;5019330;28;20564;-70
2023/09/15 09:06:24;;;;;;;4.80;2.10;;;18.80;99.90;;;;;;5016909;28;20129;-71
2023/09/15 09:08:50;;;;;;;3.63;1.70;;;18.90;99.90;;;;;;5021098;28;20551;-70
2023/09/15 09:11:16;;;;;;;3.13;1.75;;;18.90;99.90;;;;;;5015983;28;20068;-71
2023/09/15 09:13:49;;;;;;;4.75;2.33;;;19.10;99.90;;;;;;5022798;28;20405;-70
2023/09/15 09:16:15;;;;;;;5.80;2.00;;;19.20;99.90;;;;;;5020946;28;20120;-70
2023/09/15 09:18:41;;;;;;;6.20;2.28;;;19.30;99.90;;;;;;5019044;28;20053;-70
2023/09/15 09:21:06;;;;;;;5.28;1.88;;;19.30;99.90;;;;;;5018180;28;20061;-71
2023/09/15 09:23:32;;;;;;;6.93;1.80;;;19.40;99.90;;;;;;5022128;28;20073;-71
2023/09/15 09:25:59;;;;;;;7.28;2.10;;;19.40;99.90;;;;;;5020632;28;20034;-70
2023/09/15 09:28:28;;;;;;;4.28;1.60;;;19.50;99.90;;;;;;5021543;28;20148;-70
2023/09/15 09:30:57;;;;;;;3.38;1.70;;;19.60;99.90;;;;;;5018822;28;20056;-71
2023/09/15 09:33:23;;;;;;;5.53;1.85;;;19.60;99.90;;;;;;5019730;28;20046;-70
2023/09/15 09:35:49;;;;;;;6.32;1.73;;;19.60;99.90;;;;;;5015858;28;20037;-70
2023/09/15 09:38:15;;;;;;;3.35;1.48;;;19.70;99.90;;;;;;5018080;28;20404;-71
2023/09/15 09:40:41;;;;;;;5.10;1.48;;;19.80;99.90;;;;;;5018248;28;20457;-70
2023/09/15 09:43:07;;;;;;;4.90;1.80;;;19.90;99.90;;;;;;5007352;28;20030;-71
2023/09/15 09:45:32;;;;;;;3.60;1.90;;;20.00;99.90;;;;;;5022881;28;20034;-70
2023/09/15 09:48:00;;;;;;;5.50;1.88;;;20.00;99.90;;;;;;5012338;28;20026;-68
2023/09/15 09:50:29;;;;;;;3.25;1.42;;;20.00;99.90;;;;;;5002239;28;20421;-69
2023/09/15 09:52:55;;;;;;;5.95;2.28;;;20.10;99.90;;;;;;5013692;28;20045;-69
2023/09/15 09:55:24;;;;;;;3.53;1.48;;;20.20;99.90;;;;;;5013731;28;20038;-69
2023/09/15 09:57:51;;;;;;;3.72;1.38;;;20.30;99.90;;;;;;5017346;28;20386;-69
2023/09/15 10:00:21;;;;;;;6.78;2.20;;;20.40;99.90;;;;;;5008715;28;20037;-70
2023/09/15 10:02:47;;;;;;;5.45;1.77;;;20.40;99.90;;;;;;5010363;28;20076;-69
2023/09/15 10:05:13;;;;;;;3.03;1.42;;;20.40;99.90;;;;;;5018654;28;20450;-71
2023/09/15 10:07:39;;;;;;;3.92;1.67;;;20.50;99.90;;;;;;5017056;28;20817;-70
2023/09/15 10:10:07;;;;;;;2.85;1.60;;;20.60;99.90;;;;;;5022426;28;20033;-70
2023/09/15 10:12:33;;;;;;;3.72;2.03;;;20.60;99.90;;;;;;5015351;28;20042;-71
2023/09/15 10:14:59;;;;;;;5.15;2.00;;;20.70;99.90;;;;;;5013994;28;20037;-72
2023/09/15 10:17:26;;;;;;;4.03;1.58;;;20.70;99.90;;;;;;5019363;28;20576;-70
2023/09/15 10:19:53;;;;;;;4.28;1.90;;;20.60;99.90;;;;;;5019532;28;20033;-70
2023/09/15 10:22:19;;;;;;;4.22;1.73;;;20.60;99.90;;;;;;5014356;28;20556;-71
2023/09/15 10:24:47;;;;;;;2.88;1.67;;;20.60;99.90;;;;;;5017563;28;20038;-71
2023/09/15 10:27:14;;;;;;;6.88;1.90;;;20.70;99.90;;;;;;5017328;28;20058;-70
2023/09/15 10:29:44;;;;;;;3.42;1.60;;;20.60;99.90;;;;;;5019848;28;20033;-70
2023/09/15 10:32:10;;;;;;;3.42;1.63;;;20.60;99.90;;;;;;5020176;28;20438;-70
2023/09/15 10:34:36;;;;;;;4.32;1.90;;;20.60;99.90;;;;;;5012048;28;20030;-69
2023/09/15 10:37:02;;;;;;;3.53;1.90;;;20.70;99.90;;;;;;5021277;28;20021;-70
2023/09/15 10:39:36;;;;;;;3.22;1.80;;;20.70;99.90;;;;;;5016231;28;20037;-69
2023/09/15 10:42:06;;;;;;;5.47;2.20;;;20.80;99.90;;;;;;5004706;28;20034;-70
2023/09/15 10:44:32;;;;;;;8.70;2.22;;;20.80;99.90;;;;;;5020120;28;20038;-71
2023/09/15 10:46:59;;;;;;;6.30;2.35;;;20.90;99.90;;;;;;5022671;28;20037;-70
2023/09/15 10:49:25;;;;;;;4.15;1.58;;;20.90;99.90;;;;;;5017063;28;20052;-70
2023/09/15 10:51:58;;;;;;;3.50;1.90;;;20.90;99.90;;;;;;5018895;28;20045;-70
2023/09/15 10:54:26;;;;;;;6.82;2.08;;;20.90;99.90;;;;;;5016523;28;20141;-69
2023/09/15 10:56:52;;;;;;;3.72;1.88;;;20.80;99.90;;;;;;5025589;28;20033;-70
2023/09/15 10:59:17;;;;;;;5.35;2.58;;;20.80;99.90;;;;;;5023961;28;20042;-69
2023/09/15 11:01:44;;;;;;;4.63;1.88;;;20.90;99.90;;;;;;5018661;28;20037;-71
2023/09/15 11:04:20;;;;;;;6.22;2.15;;;20.80;99.90;;;;;;5020357;28;20034;-71
2023/09/15 11:06:48;;;;;;;4.57;2.17;;;20.80;99.90;;;;;;5017340;28;20034;-69
2023/09/15 11:09:18;;;;;;;2.63;1.77;;;20.90;99.90;;;;;;5028192;28;20029;-69
2023/09/15 11:11:48;;;;;;;5.63;2.00;;;20.90;99.90;;;;;;5025697;28;20081;-70
2023/09/15 11:14:16;;;;;;;4.30;1.55;;;20.90;99.90;;;;;;5022865;28;20547;-70
2023/09/15 11:16:49;;;;;;;14.05;2.55;;;21.00;99.90;;;;;;5021818;28;20029;-70
2023/09/15 11:19:16;;;;;;;7.75;2.03;;;20.90;99.90;;;;;;5025858;28;20026;-70
2023/09/15 11:21:42;;;;;;;4.80;1.85;;;21.00;99.90;;;;;;5017342;28;20440;-69
2023/09/15 11:24:11;;;;;;;5.70;1.88;;;20.90;99.90;;;;;;5023852;28;20117;-73
2023/09/15 11:26:48;;;;;;;8.98;2.20;;;20.90;99.90;;;;;;5027529;28;20036;-69
2023/09/15 11:29:14;;;;;;;4.93;2.58;;;21.00;99.90;;;;;;5021483;28;20029;-70
2023/09/15 11:31:41;;;;;;;6.18;2.05;;;21.00;99.90;;;;;;5020161;28;20063;-69
2023/09/15 11:34:08;;;;;;;7.47;2.78;;;20.90;99.90;;;;;;5015080;28;20042;-75
2023/09/15 11:36:38;;;;;;;2.60;1.88;;;20.90;99.90;;;;;;5014238;28;20454;-70
2023/09/15 11:39:11;;;;;;;3.58;1.98;;;20.90;99.90;;;;;;5013716;28;20029;-70
2023/09/15 11:41:39;;;;;;;4.63;2.30;;;20.90;99.90;;;;;;5023517;28;20110;-69
2023/09/15 11:44:06;;;;;;;7.70;1.63;;;20.90;99.90;;;;;;5014727;28;20406;-69
2023/09/15 11:46:36;;;;;;;4.43;2.00;;;20.90;99.90;;;;;;5025871;28;20033;-71
2023/09/15 11:49:03;;;;;;;3.37;2.07;;;20.90;99.90;;;;;;5018592;28;20037;-71
2023/09/15 11:51:29;;;;;;;4.45;2.10;;;20.90;99.90;;;;;;5016089;28;20038;-69
2023/09/15 11:53:58;;;;;;;4.72;1.73;;;20.90;99.90;;;;;;5026878;28;20036;-71
2023/09/15 11:56:23;;;;;;;3.92;2.03;;;20.90;99.90;;;;;;5020064;28;20030;-70
2023/09/15 11:58:50;;;;;;;4.93;2.47;;;20.90;99.90;;;;;;5025342;28;20460;-69
2023/09/15 12:01:19;;;;;;;6.30;2.63;;;20.90;99.90;;;;;;5025527;28;20101;-69
2023/09/15 12:03:48;;;;;;;6.70;2.42;;;20.90;99.90;;;;;;5020128;28;20044;-70
2023/09/15 12:06:18;;;;;;;5.00;2.28;;;21.00;99.90;;;;;;5025239;28;20417;-70
2023/09/15 12:08:49;;;;;;;4.30;1.73;;;20.90;99.90;;;;;;5026168;28;20139;-69
2023/09/15 12:11:16;;;;;;;7.63;2.55;;;20.90;99.90;;;;;;5023070;28;20025;-69
2023/09/15 12:13:42;;;;;;;4.35;2.03;;;20.80;99.90;;;;;;5023364;28;20037;-69
2023/09/15 12:16:33;;;;;;;9.25;2.40;;;20.90;99.90;;;;;;5017208;28;20547;-71
2023/09/15 12:19:00;;;;;;;6.07;2.35;;;20.90;99.90;;;;;;5026500;28;20695;-70
2023/09/15 12:21:27;;;;;;;6.13;2.42;;;20.90;99.90;;;;;;5022626;28;20167;-69
2023/09/15 12:23:56;;;;;;;6.82;1.77;;;21.00;99.90;;;;;;5026860;28;20535;-69
2023/09/15 12:26:25;;;;;;;3.23;1.70;;;20.90;99.90;;;;;;5015608;28;20038;-69
2023/09/15 12:28:53;;;;;;;4.07;1.58;;;20.90;99.90;;;;;;5023021;28;20287;-71
2023/09/15 12:31:22;;;;;;;3.28;1.63;;;20.90;99.90;;;;;;5017359;28;20034;-71
2023/09/15 12:33:52;;;;;;;5.40;2.40;;;20.90;99.90;;;;;;5024445;28;20045;-71
2023/09/15 12:36:21;;;;;;;;;;;21.00;99.90;;;;;;5018402;28;20042;-70
2023/09/15 12:38:48;;;;;;;3.13;1.60;;;21.00;99.90;;;;;;5015750;28;20440;-70
2023/09/15 12:41:14;;;;;;;9.13;1.90;;;21.00;99.90;;;;;;5025863;28;20045;-69